sensor_id;sensor_type;location;lat;lon;timestamp;pressure;altitude;pressure_sealevel;temperature;humidity
9129;BME280;4599;50.906;6.786;2024-01-27T00:00:17;102152.91;;;1.51;87.79
9129;BME280;4599;50.906;6.786;2024-01-27T00:04:20;102164.72;;;1.46;88.14
9129;BME280;4599;50.906;6.786;2024-01-27T00:08:22;102155.53;;;1.33;88.60
9129;BME280;4599;50.906;6.786;2024-01-27T00:12:24;102167.34;;;1.28;88.95
9129;BME280;4599;50.906;6.786;2024-01-27T00:16:25;102158.94;;;1.27;87.97
9129;BME280;4599;50.906;6.786;2024-01-27T00:20:28;102152.19;;;1.25;89.15
9129;BME280;4599;50.906;6.786;2024-01-27T00:24:30;102163.19;;;1.15;88.79
9129;BME280;4599;50.906;6.786;2024-01-27T00:28:32;102162.38;;;1.07;88.42
9129;BME280;4599;50.906;6.786;2024-01-27T00:32:34;102153.13;;;0.99;88.37
9129;BME280;4599;50.906;6.786;2024-01-27T00:36:37;102154.03;;;0.95;88.91
9129;BME280;4599;50.906;6.786;2024-01-27T00:40:39;102176.72;;;0.89;88.58
9129;BME280;4599;50.906;6.786;2024-01-27T00:44:41;102166.63;;;0.92;88.57
9129;BME280;4599;50.906;6.786;2024-01-27T00:48:42;102164.13;;;0.88;89.44
9129;BME280;4599;50.906;6.786;2024-01-27T00:52:46;102174.22;;;0.83;88.58
9129;BME280;4599;50.906;6.786;2024-01-27T00:56:47;102177.63;;;0.81;89.42
9129;BME280;4599;50.906;6.786;2024-01-27T01:00:49;102182.66;;;0.75;89.64
9129;BME280;4599;50.906;6.786;2024-01-27T01:04:51;102178.44;;;0.83;89.61
9129;BME280;4599;50.906;6.786;2024-01-27T01:08:54;102181.75;;;0.92;90.57
9129;BME280;4599;50.906;6.786;2024-01-27T01:12:56;102190.22;;;0.88;89.86
9129;BME280;4599;50.906;6.786;2024-01-27T01:16:58;102176.72;;;0.92;89.17
9129;BME280;4599;50.906;6.786;2024-01-27T01:20:59;102175.06;;;0.82;89.28
9129;BME280;4599;50.906;6.786;2024-01-27T01:25:03;102176.78;;;0.77;89.90
9129;BME280;4599;50.906;6.786;2024-01-27T01:29:04;102186.03;;;0.81;90.01
9129;BME280;4599;50.906;6.786;2024-01-27T01:33:06;102180.13;;;0.76;89.69
9129;BME280;4599;50.906;6.786;2024-01-27T01:37:08;102178.47;;;0.74;89.04
9129;BME280;4599;50.906;6.786;2024-01-27T01:41:11;102182.69;;;0.70;90.39
9129;BME280;4599;50.906;6.786;2024-01-27T01:45:13;102183.53;;;0.63;90.22
9129;BME280;4599;50.906;6.786;2024-01-27T01:49:14;102194.44;;;0.61;90.41
9129;BME280;4599;50.906;6.786;2024-01-27T01:53:16;102180.16;;;0.66;90.13
9129;BME280;4599;50.906;6.786;2024-01-27T01:57:19;102189.41;;;0.62;89.98
9129;BME280;4599;50.906;6.786;2024-01-27T02:01:21;102185.22;;;0.49;89.98
9129;BME280;4599;50.906;6.786;2024-01-27T02:05:23;102191.97;;;0.42;89.81
9129;BME280;4599;50.906;6.786;2024-01-27T02:09:25;102192.78;;;0.37;89.94
9129;BME280;4599;50.906;6.786;2024-01-27T02:13:28;102194.47;;;0.39;90.04
9129;BME280;4599;50.906;6.786;2024-01-27T02:17:30;102191.13;;;0.39;90.85
9129;BME280;4599;50.906;6.786;2024-01-27T02:21:31;102186.91;;;0.36;90.91
9129;BME280;4599;50.906;6.786;2024-01-27T02:25:35;102196.19;;;0.39;91.21
9129;BME280;4599;50.906;6.786;2024-01-27T02:29:37;102196.16;;;0.42;90.92
9129;BME280;4599;50.906;6.786;2024-01-27T02:33:38;102190.28;;;0.34;91.01
9129;BME280;4599;50.906;6.786;2024-01-27T02:37:41;102194.50;;;0.35;91.26
9129;BME280;4599;50.906;6.786;2024-01-27T02:41:44;102186.06;;;0.30;90.80
9129;BME280;4599;50.906;6.786;2024-01-27T02:45:46;102194.47;;;0.30;91.72
9129;BME280;4599;50.906;6.786;2024-01-27T02:49:48;102192.78;;;0.26;91.13
9129;BME280;4599;50.906;6.786;2024-01-27T02:53:49;102191.97;;;0.24;90.85
9129;BME280;4599;50.906;6.786;2024-01-27T02:57:52;102190.25;;;0.22;91.43
9129;BME280;4599;50.906;6.786;2024-01-27T03:01:54;102191.97;;;0.30;91.27
9129;BME280;4599;50.906;6.786;2024-01-27T03:05:56;102185.25;;;0.20;91.00
9129;BME280;4599;50.906;6.786;2024-01-27T03:09:58;102189.44;;;0.24;91.22
9129;BME280;4599;50.906;6.786;2024-01-27T03:14:01;102199.53;;;0.20;90.86
9129;BME280;4599;50.906;6.786;2024-01-27T03:18:03;102203.72;;;0.07;91.26
9129;BME280;4599;50.906;6.786;2024-01-27T03:22:05;102201.22;;;0.18;91.09
9129;BME280;4599;50.906;6.786;2024-01-27T03:26:07;102207.06;;;0.18;90.82
9129;BME280;4599;50.906;6.786;2024-01-27T03:30:11;102200.38;;;0.10;91.04
9129;BME280;4599;50.906;6.786;2024-01-27T03:34:13;102196.13;;;0.01;91.40
9129;BME280;4599;50.906;6.786;2024-01-27T03:38:15;102202.84;;;-0.03;91.93
9129;BME280;4599;50.906;6.786;2024-01-27T03:42:17;102201.16;;;-0.10;92.00
9129;BME280;4599;50.906;6.786;2024-01-27T03:46:20;102217.16;;;0.00;91.62
9129;BME280;4599;50.906;6.786;2024-01-27T03:50:21;102212.13;;;0.00;91.88
9129;BME280;4599;50.906;6.786;2024-01-27T03:54:23;102213.78;;;-0.08;92.00
9129;BME280;4599;50.906;6.786;2024-01-27T03:58:25;102154.06;;;-0.45;91.39
9129;BME280;4599;50.906;6.786;2024-01-27T04:02:29;102213.75;;;-0.16;92.08
9129;BME280;4599;50.906;6.786;2024-01-27T04:06:36;102207.03;;;-0.17;91.73
9129;BME280;4599;50.906;6.786;2024-01-27T04:10:37;102210.38;;;-0.27;91.99
9129;BME280;4599;50.906;6.786;2024-01-27T04:14:40;102216.25;;;-0.25;92.05
9129;BME280;4599;50.906;6.786;2024-01-27T04:18:43;102219.63;;;-0.23;91.67
9129;BME280;4599;50.906;6.786;2024-01-27T04:22:45;102229.66;;;-0.39;92.04
9129;BME280;4599;50.906;6.786;2024-01-27T04:26:47;102238.88;;;-0.41;92.20
9129;BME280;4599;50.906;6.786;2024-01-27T04:30:49;102243.09;;;-0.33;92.08
9129;BME280;4599;50.906;6.786;2024-01-27T04:34:51;102240.59;;;-0.30;91.97
9129;BME280;4599;50.906;6.786;2024-01-27T04:38:53;102246.47;;;-0.32;92.68
9129;BME280;4599;50.906;6.786;2024-01-27T04:42:55;102232.19;;;-0.33;92.33
9129;BME280;4599;50.906;6.786;2024-01-27T04:46:57;102248.94;;;-0.35;92.63
9129;BME280;4599;50.906;6.786;2024-01-27T04:51:00;102234.69;;;-0.32;92.84
9129;BME280;4599;50.906;6.786;2024-01-27T04:55:02;102238.06;;;-0.36;92.87
9129;BME280;4599;50.906;6.786;2024-01-27T04:59:04;102247.31;;;-0.30;92.46
9129;BME280;4599;50.906;6.786;2024-01-27T05:03:05;102238.88;;;-0.37;92.30
9129;BME280;4599;50.906;6.786;2024-01-27T05:07:09;102233.88;;;-0.28;92.15
9129;BME280;4599;50.906;6.786;2024-01-27T05:11:11;102236.38;;;-0.37;92.39
9129;BME280;4599;50.906;6.786;2024-01-27T05:15:13;102234.69;;;-0.38;92.78
9129;BME280;4599;50.906;6.786;2024-01-27T05:19:15;102233.84;;;-0.34;92.07
9129;BME280;4599;50.906;6.786;2024-01-27T05:23:18;102237.19;;;-0.38;91.80
9129;BME280;4599;50.906;6.786;2024-01-27T05:27:19;102231.31;;;-0.47;91.82
9129;BME280;4599;50.906;6.786;2024-01-27T05:31:21;102237.16;;;-0.55;92.23
9129;BME280;4599;50.906;6.786;2024-01-27T05:35:23;102232.13;;;-0.48;92.56
9129;BME280;4599;50.906;6.786;2024-01-27T05:39:26;102231.25;;;-0.55;92.64
9129;BME280;4599;50.906;6.786;2024-01-27T05:43:28;102227.91;;;-0.53;92.75
9129;BME280;4599;50.906;6.786;2024-01-27T05:47:29;102231.25;;;-0.55;92.33
9129;BME280;4599;50.906;6.786;2024-01-27T05:51:31;102236.28;;;-0.61;92.02
9129;BME280;4599;50.906;6.786;2024-01-27T05:55:34;102232.06;;;-0.65;92.24
9129;BME280;4599;50.906;6.786;2024-01-27T05:59:36;102239.56;;;-0.74;92.05
9129;BME280;4599;50.906;6.786;2024-01-27T06:03:38;102228.63;;;-0.81;92.44
9129;BME280;4599;50.906;6.786;2024-01-27T06:07:42;102169.72;;;-1.19;92.76
9129;BME280;4599;50.906;6.786;2024-01-27T06:11:46;102235.38;;;-0.78;93.57
9129;BME280;4599;50.906;6.786;2024-01-27T06:15:48;102233.69;;;-0.76;93.45
9129;BME280;4599;50.906;6.786;2024-01-27T06:19:50;102233.69;;;-0.76;93.61
9129;BME280;4599;50.906;6.786;2024-01-27T06:23:52;102237.88;;;-0.77;93.31
9129;BME280;4599;50.906;6.786;2024-01-27T06:27:55;102247.94;;;-0.74;93.43
9129;BME280;4599;50.906;6.786;2024-01-27T06:31:57;102247.16;;;-0.71;93.25
9129;BME280;4599;50.906;6.786;2024-01-27T06:35:58;102235.34;;;-0.83;92.90
9129;BME280;4599;50.906;6.786;2024-01-27T06:40:00;102234.47;;;-0.86;93.28
9129;BME280;4599;50.906;6.786;2024-01-27T06:44:03;102247.06;;;-0.85;93.66
9129;BME280;4599;50.906;6.786;2024-01-27T06:48:06;102257.13;;;-0.83;93.94
9129;BME280;4599;50.906;6.786;2024-01-27T06:52:08;102249.63;;;-0.79;93.92
9129;BME280;4599;50.906;6.786;2024-01-27T06:56:10;102252.97;;;-0.80;93.13
9129;BME280;4599;50.906;6.786;2024-01-27T07:00:14;102254.66;;;-0.82;93.44
9129;BME280;4599;50.906;6.786;2024-01-27T07:04:17;102257.16;;;-0.80;93.41
9129;BME280;4599;50.906;6.786;2024-01-27T07:08:19;102260.56;;;-0.75;93.69
9129;BME280;4599;50.906;6.786;2024-01-27T07:12:22;102265.63;;;-0.66;93.81
9129;BME280;4599;50.906;6.786;2024-01-27T07:16:25;102272.38;;;-0.59;93.55
9129;BME280;4599;50.906;6.786;2024-01-27T07:20:26;102270.69;;;-0.62;93.41
9129;BME280;4599;50.906;6.786;2024-01-27T07:24:28;102272.38;;;-0.59;93.30
9129;BME280;4599;50.906;6.786;2024-01-27T07:28:30;102274.94;;;-0.48;93.21
9129;BME280;4599;50.906;6.786;2024-01-27T07:32:33;102267.41;;;-0.44;92.64
9129;BME280;4599;50.906;6.786;2024-01-27T07:36:35;102265.72;;;-0.45;92.81
9129;BME280;4599;50.906;6.786;2024-01-27T07:40:37;102272.44;;;-0.42;92.63
9129;BME280;4599;50.906;6.786;2024-01-27T07:44:38;102282.56;;;-0.36;92.74
9129;BME280;4599;50.906;6.786;2024-01-27T07:48:42;102282.56;;;-0.33;92.26
9129;BME280;4599;50.906;6.786;2024-01-27T07:52:44;102291.00;;;-0.25;92.14
9129;BME280;4599;50.906;6.786;2024-01-27T07:56:45;102295.19;;;-0.29;92.38
9129;BME280;4599;50.906;6.786;2024-01-27T08:00:47;102306.09;;;-0.27;92.17
9129;BME280;4599;50.906;6.786;2024-01-27T08:04:50;102314.53;;;-0.22;92.51
9129;BME280;4599;50.906;6.786;2024-01-27T08:08:52;102324.56;;;-0.26;92.19
9129;BME280;4599;50.906;6.786;2024-01-27T08:12:54;102317.06;;;-0.16;92.15
9129;BME280;4599;50.906;6.786;2024-01-27T08:16:55;102314.56;;;-0.08;91.74
9129;BME280;4599;50.906;6.786;2024-01-27T08:21:00;102325.47;;;-0.09;92.26
9129;BME280;4599;50.906;6.786;2024-01-27T08:25:03;102337.28;;;0.03;92.53
9129;BME280;4599;50.906;6.786;2024-01-27T08:29:05;102337.31;;;0.09;91.68
9129;BME280;4599;50.906;6.786;2024-01-27T08:33:07;102333.13;;;0.15;91.77
9129;BME280;4599;50.906;6.786;2024-01-27T08:37:21;102332.34;;;0.28;90.97
9129;BME280;4599;50.906;6.786;2024-01-27T08:41:28;102328.13;;;0.39;90.70
9129;BME280;4599;50.906;6.786;2024-01-27T08:45:31;102334.03;;;0.47;91.11
9129;BME280;4599;50.906;6.786;2024-01-27T08:49:33;102314.69;;;0.48;91.52
9129;BME280;4599;50.906;6.786;2024-01-27T08:53:36;102302.09;;;0.72;90.18
9129;BME280;4599;50.906;6.786;2024-01-27T08:57:38;102302.94;;;0.71;90.23
9129;BME280;4599;50.906;6.786;2024-01-27T09:01:46;102302.09;;;0.80;90.31
9129;BME280;4599;50.906;6.786;2024-01-27T09:05:53;102307.97;;;1.05;89.83
9129;BME280;4599;50.906;6.786;2024-01-27T09:09:56;102299.53;;;1.04;89.08
9129;BME280;4599;50.906;6.786;2024-01-27T09:13:58;102302.91;;;1.20;89.40
9129;BME280;4599;50.906;6.786;2024-01-27T09:18:00;102293.63;;;1.29;88.88
9129;BME280;4599;50.906;6.786;2024-01-27T09:22:02;102296.06;;;1.49;87.85
9129;BME280;4599;50.906;6.786;2024-01-27T09:26:05;102295.19;;;1.56;87.13
9129;BME280;4599;50.906;6.786;2024-01-27T09:30:08;102302.66;;;1.85;85.86
9129;BME280;4599;50.906;6.786;2024-01-27T09:34:09;102299.19;;;2.09;84.24
9129;BME280;4599;50.906;6.786;2024-01-27T09:38:11;102299.94;;;2.24;84.06
9129;BME280;4599;50.906;6.786;2024-01-27T09:42:14;102287.22;;;2.32;84.33
9129;BME280;4599;50.906;6.786;2024-01-27T09:46:17;102294.78;;;2.38;85.85
9129;BME280;4599;50.906;6.786;2024-01-27T09:50:19;102300.56;;;2.52;86.40
9129;BME280;4599;50.906;6.786;2024-01-27T09:54:23;102307.28;;;2.62;87.86
9129;BME280;4599;50.906;6.786;2024-01-27T09:58:26;102303.75;;;2.77;83.99
9129;BME280;4599;50.906;6.786;2024-01-27T10:02:29;102300.31;;;2.87;84.32
9129;BME280;4599;50.906;6.786;2024-01-27T10:06:32;102289.28;;;2.92;84.55
9129;BME280;4599;50.906;6.786;2024-01-27T10:10:34;102301.84;;;3.01;85.24
9129;BME280;4599;50.906;6.786;2024-01-27T10:14:40;102299.97;;;3.20;82.68
9129;BME280;4599;50.906;6.786;2024-01-27T10:18:43;102309.31;;;3.17;82.40
9129;BME280;4599;50.906;6.786;2024-01-27T10:22:44;102315.00;;;3.40;81.09
9129;BME280;4599;50.906;6.786;2024-01-27T10:26:46;102311.66;;;3.36;82.49
9129;BME280;4599;50.906;6.786;2024-01-27T10:30:50;102316.44;;;3.61;81.60
9129;BME280;4599;50.906;6.786;2024-01-27T10:35:01;102319.25;;;4.05;81.04
9129;BME280;4599;50.906;6.786;2024-01-27T10:39:14;102308.34;;;5.07;76.79
9129;BME280;4599;50.906;6.786;2024-01-27T10:43:17;102304.97;;;6.69;69.53
9129;BME280;4599;50.906;6.786;2024-01-27T10:47:21;102304.78;;;8.82;61.66
9129;BME280;4599;50.906;6.786;2024-01-27T10:51:30;102312.59;;;9.27;57.22
9129;BME280;4599;50.906;6.786;2024-01-27T10:55:33;102303.75;;;8.06;61.20
9129;BME280;4599;50.906;6.786;2024-01-27T10:59:35;102312.63;;;7.34;64.88
9129;BME280;4599;50.906;6.786;2024-01-27T11:03:39;102311.75;;;7.35;66.39
9129;BME280;4599;50.906;6.786;2024-01-27T11:07:42;102311.28;;;7.82;63.68
9129;BME280;4599;50.906;6.786;2024-01-27T11:11:44;102313.28;;;9.55;58.36
9129;BME280;4599;50.906;6.786;2024-01-27T11:15:51;102304.91;;;9.96;54.58
9129;BME280;4599;50.906;6.786;2024-01-27T11:19:56;102306.09;;;11.34;49.97
9129;BME280;4599;50.906;6.786;2024-01-27T11:23:57;102287.88;;;11.59;48.52
9129;BME280;4599;50.906;6.786;2024-01-27T11:28:10;102295.72;;;11.56;47.91
9129;BME280;4599;50.906;6.786;2024-01-27T11:32:12;102293.66;;;13.23;44.71
9129;BME280;4599;50.906;6.786;2024-01-27T11:36:21;102301.88;;;13.93;42.25
9129;BME280;4599;50.906;6.786;2024-01-27T11:40:23;102304.59;;;14.22;42.16
9129;BME280;4599;50.906;6.786;2024-01-27T11:44:26;102314.09;;;14.37;43.44
9129;BME280;4599;50.906;6.786;2024-01-27T11:48:28;102314.25;;;15.08;41.35
9129;BME280;4599;50.906;6.786;2024-01-27T11:52:31;102318.53;;;14.79;38.23
9129;BME280;4599;50.906;6.786;2024-01-27T11:56:33;102327.47;;;13.96;39.38
9129;BME280;4599;50.906;6.786;2024-01-27T12:00:34;102322.06;;;13.85;41.69
9129;BME280;4599;50.906;6.786;2024-01-27T12:04:36;102319.63;;;14.29;42.00
9129;BME280;4599;50.906;6.786;2024-01-27T12:08:40;102310.94;;;13.69;40.76
9129;BME280;4599;50.906;6.786;2024-01-27T12:12:42;102307.34;;;12.72;45.94
9129;BME280;4599;50.906;6.786;2024-01-27T12:16:44;102303.38;;;12.49;46.03
9129;BME280;4599;50.906;6.786;2024-01-27T12:20:45;102310.59;;;11.68;48.03
9129;BME280;4599;50.906;6.786;2024-01-27T12:24:49;102296.78;;;11.13;48.57
9129;BME280;4599;50.906;6.786;2024-01-27T12:28:51;102299.47;;;11.30;47.00
9129;BME280;4599;50.906;6.786;2024-01-27T12:32:52;102287.25;;;10.76;47.51
9129;BME280;4599;50.906;6.786;2024-01-27T12:36:55;102247.38;;;10.05;50.50
9129;BME280;4599;50.906;6.786;2024-01-27T12:40:59;102275.25;;;10.13;49.99
9129;BME280;4599;50.906;6.786;2024-01-27T12:45:00;102284.81;;;9.86;49.79
9129;BME280;4599;50.906;6.786;2024-01-27T12:49:02;102293.44;;;9.62;50.89
9129;BME280;4599;50.906;6.786;2024-01-27T12:53:04;102291.97;;;9.55;54.73
9129;BME280;4599;50.906;6.786;2024-01-27T12:57:07;102287.13;;;9.24;53.66
9129;BME280;4599;50.906;6.786;2024-01-27T13:01:09;102285.09;;;9.09;51.93
9129;BME280;4599;50.906;6.786;2024-01-27T13:05:11;102282.66;;;9.06;50.90
9129;BME280;4599;50.906;6.786;2024-01-27T13:09:13;102282.19;;;8.68;53.97
9129;BME280;4599;50.906;6.786;2024-01-27T13:13:16;102270.44;;;8.64;55.35
9129;BME280;4599;50.906;6.786;2024-01-27T13:17:18;102271.56;;;8.56;53.78
9129;BME280;4599;50.906;6.786;2024-01-27T13:21:19;102256.88;;;8.36;57.76
9129;BME280;4599;50.906;6.786;2024-01-27T13:25:21;102259.44;;;8.36;55.99
9129;BME280;4599;50.906;6.786;2024-01-27T13:29:24;102265.00;;;8.21;55.48
9129;BME280;4599;50.906;6.786;2024-01-27T13:33:26;102263.72;;;8.08;55.04
9129;BME280;4599;50.906;6.786;2024-01-27T13:37:30;102262.63;;;7.87;59.93
9129;BME280;4599;50.906;6.786;2024-01-27T13:41:32;102261.16;;;8.08;57.78
9129;BME280;4599;50.906;6.786;2024-01-27T13:45:37;102265.78;;;7.95;57.19
9129;BME280;4599;50.906;6.786;2024-01-27T13:49:39;102261.09;;;7.81;57.15
9129;BME280;4599;50.906;6.786;2024-01-27T13:53:41;102254.84;;;7.62;58.94
9129;BME280;4599;50.906;6.786;2024-01-27T13:57:48;102266.31;;;7.47;63.74
9129;BME280;4599;50.906;6.786;2024-01-27T14:01:52;102259.22;;;7.59;59.48
9129;BME280;4599;50.906;6.786;2024-01-27T14:05:53;102247.13;;;7.36;61.84
9129;BME280;4599;50.906;6.786;2024-01-27T14:09:55;102243.63;;;7.40;61.83
9129;BME280;4599;50.906;6.786;2024-01-27T14:13:57;102237.50;;;7.44;59.56
9129;BME280;4599;50.906;6.786;2024-01-27T14:18:00;102237.16;;;7.27;61.57
9129;BME280;4599;50.906;6.786;2024-01-27T14:22:02;102232.06;;;7.27;62.84
9129;BME280;4599;50.906;6.786;2024-01-27T14:26:04;102230.41;;;7.26;64.28
9129;BME280;4599;50.906;6.786;2024-01-27T14:30:07;102229.72;;;7.19;63.75
9129;BME280;4599;50.906;6.786;2024-01-27T14:34:10;102228.09;;;7.17;60.68
9129;BME280;4599;50.906;6.786;2024-01-27T14:38:12;102222.31;;;7.12;63.29
9129;BME280;4599;50.906;6.786;2024-01-27T14:42:14;102221.72;;;7.33;58.72
9129;BME280;4599;50.906;6.786;2024-01-27T14:46:16;102205.69;;;7.28;58.98
9129;BME280;4599;50.906;6.786;2024-01-27T14:50:19;102212.16;;;7.39;59.57
9129;BME280;4599;50.906;6.786;2024-01-27T14:54:21;102197.69;;;7.40;59.81
9129;BME280;4599;50.906;6.786;2024-01-27T14:58:23;102201.25;;;7.34;58.72
9129;BME280;4599;50.906;6.786;2024-01-27T15:02:25;102197.69;;;7.40;59.34
9129;BME280;4599;50.906;6.786;2024-01-27T15:06:30;102204.75;;;7.30;60.40
9129;BME280;4599;50.906;6.786;2024-01-27T15:10:32;102204.09;;;7.24;59.67
9129;BME280;4599;50.906;6.786;2024-01-27T15:14:34;102210.06;;;7.23;61.21
9129;BME280;4599;50.906;6.786;2024-01-27T15:18:36;102207.59;;;7.21;61.19
9129;BME280;4599;50.906;6.786;2024-01-27T15:22:39;102211.38;;;7.07;62.28
9129;BME280;4599;50.906;6.786;2024-01-27T15:26:41;102214.69;;;6.79;64.30
9129;BME280;4599;50.906;6.786;2024-01-27T15:30:43;102215.06;;;6.64;64.61
9129;BME280;4599;50.906;6.786;2024-01-27T15:34:45;102203.00;;;6.71;64.34
9129;BME280;4599;50.906;6.786;2024-01-27T15:38:48;102204.66;;;6.39;65.66
9129;BME280;4599;50.906;6.786;2024-01-27T15:42:49;102192.78;;;6.40;64.66
9129;BME280;4599;50.906;6.786;2024-01-27T15:46:51;102199.53;;;6.41;64.49
9129;BME280;4599;50.906;6.786;2024-01-27T15:50:52;102180.56;;;6.19;66.55
9129;BME280;4599;50.906;6.786;2024-01-27T15:54:56;102188.09;;;6.23;64.77
9129;BME280;4599;50.906;6.786;2024-01-27T15:58:58;102188.63;;;6.02;67.67
9129;BME280;4599;50.906;6.786;2024-01-27T16:03:02;102189.09;;;5.79;68.75
9129;BME280;4599;50.906;6.786;2024-01-27T16:07:04;102185.09;;;5.69;68.09
9129;BME280;4599;50.906;6.786;2024-01-27T16:11:07;102173.78;;;6.18;65.52
9129;BME280;4599;50.906;6.786;2024-01-27T16:15:09;102176.84;;;6.32;64.14
9129;BME280;4599;50.906;6.786;2024-01-27T16:19:11;102172.84;;;6.22;63.90
9129;BME280;4599;50.906;6.786;2024-01-27T16:23:13;102175.63;;;6.13;64.32
9129;BME280;4599;50.906;6.786;2024-01-27T16:27:15;102188.09;;;5.85;67.51
9129;BME280;4599;50.906;6.786;2024-01-27T16:31:17;102144.28;;;5.35;66.98
9129;BME280;4599;50.906;6.786;2024-01-27T16:35:19;102180.25;;;5.59;68.13
9129;BME280;4599;50.906;6.786;2024-01-27T16:39:20;102186.41;;;5.87;64.96
9129;BME280;4599;50.906;6.786;2024-01-27T16:43:24;102187.25;;;5.87;64.53
9129;BME280;4599;50.906;6.786;2024-01-27T16:47:25;102187.72;;;6.03;64.50
9129;BME280;4599;50.906;6.786;2024-01-27T16:51:27;102183.66;;;5.96;64.24
9129;BME280;4599;50.906;6.786;2024-01-27T16:55:29;102192.13;;;5.96;64.42
9129;BME280;4599;50.906;6.786;2024-01-27T16:59:32;102187.31;;;5.83;64.21
9129;BME280;4599;50.906;6.786;2024-01-27T17:03:33;102195.59;;;5.54;66.67
9129;BME280;4599;50.906;6.786;2024-01-27T17:07:35;102195.97;;;5.36;68.91
9129;BME280;4599;50.906;6.786;2024-01-27T17:11:37;102181.91;;;5.20;70.04
9129;BME280;4599;50.906;6.786;2024-01-27T17:15:40;102185.38;;;5.16;69.10
9129;BME280;4599;50.906;6.786;2024-01-27T17:19:42;102191.47;;;5.07;68.53
9129;BME280;4599;50.906;6.786;2024-01-27T17:23:44;102180.72;;;5.36;66.05
9129;BME280;4599;50.906;6.786;2024-01-27T17:27:45;102175.25;;;5.54;65.54
9129;BME280;4599;50.906;6.786;2024-01-27T17:31:48;102164.94;;;5.60;65.06
9129;BME280;4599;50.906;6.786;2024-01-27T17:35:50;102158.97;;;5.61;64.57
9129;BME280;4599;50.906;6.786;2024-01-27T17:39:52;102170.06;;;5.59;63.39
9129;BME280;4599;50.906;6.786;2024-01-27T17:43:53;102173.91;;;5.38;65.21
9129;BME280;4599;50.906;6.786;2024-01-27T17:47:56;102175.63;;;5.37;65.89
9129;BME280;4599;50.906;6.786;2024-01-27T17:51:58;102185.94;;;5.30;65.41
9129;BME280;4599;50.906;6.786;2024-01-27T17:56:00;102174.94;;;5.29;65.60
9129;BME280;4599;50.906;6.786;2024-01-27T18:00:02;102166.75;;;5.14;66.67
9129;BME280;4599;50.906;6.786;2024-01-27T18:04:05;102175.28;;;5.13;66.94
9129;BME280;4599;50.906;6.786;2024-01-27T18:08:07;102174.56;;;5.46;65.09
9129;BME280;4599;50.906;6.786;2024-01-27T18:12:09;102169.72;;;5.35;66.00
9129;BME280;4599;50.906;6.786;2024-01-27T18:16:10;102175.28;;;5.53;65.86
9129;BME280;4599;50.906;6.786;2024-01-27T18:20:13;102180.78;;;5.33;66.44
9129;BME280;4599;50.906;6.786;2024-01-27T18:24:16;102171.69;;;5.23;67.31
9129;BME280;4599;50.906;6.786;2024-01-27T18:28:18;102171.31;;;5.39;65.69
9129;BME280;4599;50.906;6.786;2024-01-27T18:32:19;102170.06;;;5.19;67.26
9129;BME280;4599;50.906;6.786;2024-01-27T18:36:22;102170.91;;;5.18;67.52
9129;BME280;4599;50.906;6.786;2024-01-27T18:40:24;102173.00;;;4.99;67.80
9129;BME280;4599;50.906;6.786;2024-01-27T18:44:26;102178.38;;;5.27;67.59
9129;BME280;4599;50.906;6.786;2024-01-27T18:48:29;102176.06;;;5.16;67.16
9129;BME280;4599;50.906;6.786;2024-01-27T18:52:32;102180.53;;;5.03;68.16
9129;BME280;4599;50.906;6.786;2024-01-27T18:56:34;102183.22;;;4.96;68.73
9129;BME280;4599;50.906;6.786;2024-01-27T19:00:36;102183.06;;;5.03;68.90
9129;BME280;4599;50.906;6.786;2024-01-27T19:04:37;102189.47;;;4.78;69.52
9129;BME280;4599;50.906;6.786;2024-01-27T19:08:41;102198.78;;;4.79;69.44
9129;BME280;4599;50.906;6.786;2024-01-27T19:12:42;102186.34;;;4.64;70.98
9129;BME280;4599;50.906;6.786;2024-01-27T19:16:44;102180.34;;;4.70;71.17
9129;BME280;4599;50.906;6.786;2024-01-27T19:20:46;102189.78;;;4.63;71.44
9129;BME280;4599;50.906;6.786;2024-01-27T19:24:49;102183.81;;;4.64;71.12
9129;BME280;4599;50.906;6.786;2024-01-27T19:28:50;102174.59;;;4.60;72.31
9129;BME280;4599;50.906;6.786;2024-01-27T19:32:52;102173.25;;;4.39;72.87
9129;BME280;4599;50.906;6.786;2024-01-27T19:36:54;102173.16;;;4.44;72.92
9129;BME280;4599;50.906;6.786;2024-01-27T19:40:57;102169.84;;;4.42;73.27
9129;BME280;4599;50.906;6.786;2024-01-27T19:45:16;102182.78;;;4.27;74.06
9129;BME280;4599;50.906;6.786;2024-01-27T19:49:18;102191.69;;;3.98;75.88
9129;BME280;4599;50.906;6.786;2024-01-27T19:53:20;102196.16;;;3.81;76.33
9129;BME280;4599;50.906;6.786;2024-01-27T19:57:23;102197.91;;;3.78;77.13
9129;BME280;4599;50.906;6.786;2024-01-27T20:01:25;102198.94;;;3.65;77.73
9129;BME280;4599;50.906;6.786;2024-01-27T20:05:27;102192.75;;;3.84;76.65
9129;BME280;4599;50.906;6.786;2024-01-27T20:09:29;102184.34;;;3.80;76.84
9129;BME280;4599;50.906;6.786;2024-01-27T20:13:32;102167.59;;;3.70;76.57
9129;BME280;4599;50.906;6.786;2024-01-27T20:17:34;102167.63;;;3.66;77.09
9129;BME280;4599;50.906;6.786;2024-01-27T20:21:35;102166.88;;;3.61;77.53
9129;BME280;4599;50.906;6.786;2024-01-27T20:25:37;102169.81;;;3.30;78.40
9129;BME280;4599;50.906;6.786;2024-01-27T20:29:41;102166.59;;;3.18;79.29
9129;BME280;4599;50.906;6.786;2024-01-27T20:33:42;102166.47;;;3.27;78.87
9129;BME280;4599;50.906;6.786;2024-01-27T20:37:51;102172.56;;;3.12;79.05
9129;BME280;4599;50.906;6.786;2024-01-27T20:41:52;102164.31;;;2.96;79.40
9129;BME280;4599;50.906;6.786;2024-01-27T20:45:56;102166.94;;;2.90;79.56
9129;BME280;4599;50.906;6.786;2024-01-27T20:49:59;102159.56;;;2.68;81.08
9129;BME280;4599;50.906;6.786;2024-01-27T20:54:01;102159.47;;;2.78;80.86
9129;BME280;4599;50.906;6.786;2024-01-27T20:58:03;102032.78;;;2.13;80.40
9129;BME280;4599;50.906;6.786;2024-01-27T21:02:06;102161.00;;;2.91;80.04
9129;BME280;4599;50.906;6.786;2024-01-27T21:06:08;102152.88;;;2.61;80.93
9129;BME280;4599;50.906;6.786;2024-01-27T21:10:10;102085.06;;;2.12;81.54
9129;BME280;4599;50.906;6.786;2024-01-27T21:14:12;102147.19;;;2.39;81.79
9129;BME280;4599;50.906;6.786;2024-01-27T21:18:15;102141.38;;;2.28;82.38
9129;BME280;4599;50.906;6.786;2024-01-27T21:22:17;102146.44;;;2.28;81.84
9129;BME280;4599;50.906;6.786;2024-01-27T21:26:18;102149.75;;;2.36;81.45
9129;BME280;4599;50.906;6.786;2024-01-27T21:30:20;102142.13;;;2.37;81.78
9129;BME280;4599;50.906;6.786;2024-01-27T21:34:23;102144.59;;;2.45;81.32
9129;BME280;4599;50.906;6.786;2024-01-27T21:38:25;102082.38;;;2.27;80.06
9129;BME280;4599;50.906;6.786;2024-01-27T21:42:27;102135.63;;;2.94;78.79
9129;BME280;4599;50.906;6.786;2024-01-27T21:46:29;102139.84;;;2.97;78.45
9129;BME280;4599;50.906;6.786;2024-01-27T21:50:32;102137.41;;;2.89;79.07
9129;BME280;4599;50.906;6.786;2024-01-27T21:54:34;102123.69;;;3.06;78.62